Time;durP1;ratioP1;P1;durP2;ratioP2;P2;SDS_P1;SDS_P2;PMS_P1;PMS_P2;Temp;Humidity;BMP_temperature;BMP_pressure;BME280_temperature;BME280_humidity;BME280_pressure;Samples;Min_cycle;Max_cycle;Signal;HPM_P1;HPM_P2
2023/04/16 00:02:10;;;;;;;12.82;2.50;;;8.50;99.90;;;;;;4993868;28;20031;-88
2023/04/16 00:04:36;;;;;;;9.40;1.63;;;8.50;99.90;;;;;;4994971;28;20145;-88
2023/04/16 00:07:01;;;;;;;10.82;1.50;;;8.50;99.90;;;;;;4994708;28;20407;-88
2023/04/16 00:09:28;;;;;;;19.35;1.80;;;8.60;99.90;;;;;;4994287;28;20050;-87
2023/04/16 00:11:54;;;;;;;7.60;2.10;;;8.60;99.90;;;;;;4996163;28;20050;-88
2023/04/16 00:14:20;;;;;;;6.18;1.27;;;8.60;99.90;;;;;;4994603;28;20031;-87
2023/04/16 00:16:45;;;;;;;9.05;1.67;;;8.60;99.90;;;;;;4994486;28;20402;-88
2023/04/16 00:19:11;;;;;;;13.50;2.10;;;8.60;99.90;;;;;;4994684;28;20061;-87
2023/04/16 00:21:37;;;;;;;10.27;1.90;;;8.60;99.90;;;;;;4995109;28;20030;-89
2023/04/16 00:24:03;;;;;;;6.55;1.50;;;8.60;99.90;;;;;;4994782;28;20026;-88
2023/04/16 00:26:28;;;;;;;11.05;2.00;;;8.60;99.90;;;;;;4992899;28;20042;-88
2023/04/16 00:28:54;;;;;;;10.32;2.15;;;8.60;99.90;;;;;;5003557;28;20030;-88
2023/04/16 00:31:31;;;;;;;12.75;2.25;;;8.60;99.90;;;;;;4976749;28;20446;-87
2023/04/16 00:33:57;;;;;;;7.18;2.95;;;8.60;99.90;;;;;;5006900;28;20030;-88
2023/04/16 00:36:23;;;;;;;13.70;2.63;;;8.60;99.90;;;;;;4994462;28;20483;-88
2023/04/16 00:38:51;;;;;;;8.45;2.08;;;8.60;99.90;;;;;;4994735;28;20378;-87
2023/04/16 00:41:16;;;;;;;8.20;2.10;;;8.60;99.90;;;;;;4995810;28;20496;-88
2023/04/16 00:43:42;;;;;;;9.32;2.65;;;8.60;99.90;;;;;;4993819;28;20125;-88
2023/04/16 00:46:08;;;;;;;12.60;2.40;;;8.60;99.90;;;;;;4994061;28;20094;-88
2023/04/16 00:48:36;;;;;;;9.93;2.78;;;8.60;99.90;;;;;;4994005;28;20022;-87
2023/04/16 00:51:04;;;;;;;15.80;2.83;;;8.60;99.90;;;;;;4994552;28;20046;-87
2023/04/16 00:53:30;;;;;;;11.73;2.85;;;8.60;99.90;;;;;;4993618;28;20054;-88
2023/04/16 00:55:56;;;;;;;11.57;2.60;;;8.60;99.90;;;;;;4994428;28;20069;-88
2023/04/16 00:58:22;;;;;;;12.60;3.10;;;8.60;99.90;;;;;;4993468;28;20031;-88
2023/04/16 01:00:48;;;;;;;10.88;2.67;;;8.60;99.90;;;;;;4994295;28;20023;-88
2023/04/16 01:03:14;;;;;;;8.75;3.00;;;8.60;99.90;;;;;;4993267;28;20041;-88
2023/04/16 01:05:40;;;;;;;10.25;2.97;;;8.60;99.90;;;;;;4994526;28;20018;-88
2023/04/16 01:08:05;;;;;;;13.57;3.20;;;8.60;99.90;;;;;;4999017;28;20082;-88
2023/04/16 01:10:31;;;;;;;13.48;2.92;;;8.60;99.90;;;;;;4993387;28;20437;-88
2023/04/16 01:12:56;;;;;;;8.73;3.17;;;8.60;99.90;;;;;;4992297;28;20037;-88
2023/04/16 01:15:22;;;;;;;10.90;2.90;;;8.60;99.90;;;;;;4993600;28;20050;-88
2023/04/16 01:17:47;;;;;;;15.57;3.40;;;8.60;99.90;;;;;;4993995;28;20023;-88
2023/04/16 01:20:13;;;;;;;14.45;4.68;;;8.60;99.90;;;;;;4994293;28;20034;-88
2023/04/16 01:22:39;;;;;;;16.13;4.88;;;8.50;99.90;;;;;;4976431;28;20077;-88
2023/04/16 01:25:05;;;;;;;16.77;4.32;;;8.60;99.90;;;;;;4996640;28;20019;-88
2023/04/16 01:27:31;;;;;;;10.10;3.67;;;8.60;99.90;;;;;;5002061;28;20061;-89
2023/04/16 01:29:56;;;;;;;15.63;4.70;;;8.60;99.90;;;;;;4977957;28;20038;-88
2023/04/16 01:32:22;;;;;;;19.90;5.65;;;8.60;99.90;;;;;;5000008;28;20117;-88
2023/04/16 01:34:47;;;;;;;21.10;5.82;;;8.60;99.90;;;;;;5009386;28;20026;-88
2023/04/16 01:37:13;;;;;;;15.88;4.40;;;8.60;99.90;;;;;;5010159;28;20053;-88
2023/04/16 01:39:38;;;;;;;23.65;5.78;;;8.60;99.90;;;;;;4993345;28;20057;-88
2023/04/16 01:42:04;;;;;;;18.80;5.95;;;8.60;99.90;;;;;;5009931;28;20426;-88
2023/04/16 01:44:30;;;;;;;21.88;6.82;;;8.60;99.90;;;;;;4991998;28;20033;-87
2023/04/16 01:46:55;;;;;;;19.15;5.95;;;8.60;99.90;;;;;;4992421;28;20176;-88
2023/04/16 01:49:21;;;;;;;21.83;6.03;;;8.60;99.90;;;;;;4992783;28;20026;-88
2023/04/16 01:51:47;;;;;;;23.38;7.03;;;8.60;99.90;;;;;;4992873;28;20042;-88
2023/04/16 01:54:13;;;;;;;29.02;7.25;;;8.60;99.90;;;;;;4992545;28;20021;-88
2023/04/16 01:56:38;;;;;;;24.13;7.18;;;8.60;99.90;;;;;;4992611;28;20478;-88
2023/04/16 01:59:04;;;;;;;27.48;7.70;;;8.60;99.90;;;;;;5012637;28;20073;-88
2023/04/16 02:01:29;;;;;;;26.85;7.07;;;8.60;99.90;;;;;;4993164;28;20366;-88
2023/04/16 02:03:56;;;;;;;28.02;7.50;;;8.60;99.90;;;;;;4992269;28;20022;-88
2023/04/16 02:06:21;;;;;;;22.27;7.70;;;8.60;99.90;;;;;;4991228;28;20034;-87
2023/04/16 02:08:47;;;;;;;21.75;7.60;;;8.60;99.90;;;;;;4992107;28;20415;-88
2023/04/16 02:11:13;;;;;;;31.45;8.63;;;8.60;99.90;;;;;;4993001;28;20049;-87
2023/04/16 02:13:38;;;;;;;24.05;8.13;;;8.60;99.90;;;;;;4993543;28;20080;-88
2023/04/16 02:16:04;;;;;;;26.52;8.23;;;8.60;99.90;;;;;;4993479;28;20121;-89
2023/04/16 02:18:29;;;;;;;24.85;9.13;;;8.60;99.90;;;;;;4992962;28;20026;-88
2023/04/16 02:20:58;;;;;;;26.38;8.10;;;8.60;99.90;;;;;;5009780;28;20034;-89
2023/04/16 02:23:23;;;;;;;23.17;7.60;;;8.60;99.90;;;;;;4991725;28;20072;-88
2023/04/16 02:25:49;;;;;;;24.35;7.72;;;8.60;99.90;;;;;;4992034;28;20443;-88
2023/04/16 02:28:16;;;;;;;29.27;8.45;;;8.60;99.90;;;;;;4992340;28;20124;-88
2023/04/16 02:30:42;;;;;;;27.83;8.75;;;8.60;99.90;;;;;;4992695;28;20128;-88
2023/04/16 02:33:09;;;;;;;25.55;8.48;;;8.60;99.90;;;;;;4988854;28;20124;-89
2023/04/16 02:35:37;;;;;;;34.50;9.68;;;8.60;99.90;;;;;;4988794;28;20027;-88
2023/04/16 02:38:03;;;;;;;17.05;7.20;;;8.60;99.90;;;;;;5010439;28;20542;-88
2023/04/16 02:40:29;;;;;;;31.50;9.68;;;8.70;99.90;;;;;;5018127;28;20030;-88
2023/04/16 02:42:55;;;;;;;18.80;7.55;;;8.70;99.90;;;;;;4991251;28;20410;-88
2023/04/16 02:45:22;;;;;;;34.05;8.35;;;8.60;99.90;;;;;;4991962;28;20129;-88
2023/04/16 02:47:48;;;;;;;29.70;8.95;;;8.70;99.90;;;;;;5009843;28;20073;-88
2023/04/16 02:50:14;;;;;;;33.00;9.30;;;8.60;99.90;;;;;;4991444;28;20031;-88
2023/04/16 02:52:39;;;;;;;33.92;9.80;;;8.60;99.90;;;;;;5009674;28;20043;-88
2023/04/16 02:55:06;;;;;;;34.17;10.77;;;8.60;99.90;;;;;;5008529;28;20159;-88
2023/04/16 02:57:32;;;;;;;31.35;9.77;;;8.60;99.90;;;;;;4992212;28;20430;-88
2023/04/16 02:59:58;;;;;;;32.92;10.23;;;8.70;99.90;;;;;;5008690;28;20395;-89
2023/04/16 03:02:24;;;;;;;36.03;10.02;;;8.60;99.90;;;;;;4991822;28;20030;-88
2023/04/16 03:04:49;;;;;;;37.10;10.23;;;8.60;99.90;;;;;;4991092;28;20096;-88
2023/04/16 03:07:17;;;;;;;37.97;12.20;;;8.60;99.90;;;;;;4992278;28;20080;-88
2023/04/16 03:09:43;;;;;;;37.08;10.27;;;8.60;99.90;;;;;;4992395;28;20366;-88
2023/04/16 03:12:08;;;;;;;34.67;11.10;;;8.60;99.90;;;;;;4991597;28;20038;-89
2023/04/16 03:14:34;;;;;;;36.05;10.02;;;8.60;99.90;;;;;;4991085;28;20022;-89
2023/04/16 03:16:59;;;;;;;37.10;11.55;;;8.60;99.90;;;;;;4991805;28;20030;-88
2023/04/16 03:19:25;;;;;;;33.15;10.77;;;8.70;99.90;;;;;;4992017;28;20034;-87
2023/04/16 03:21:51;;;;;;;38.63;11.07;;;8.60;99.90;;;;;;4992267;28;20163;-88
2023/04/16 03:24:16;;;;;;;31.42;11.35;;;8.60;99.90;;;;;;4991624;28;20058;-87
2023/04/16 03:26:42;;;;;;;35.83;11.82;;;8.70;99.90;;;;;;4992515;28;20376;-88
2023/04/16 03:29:07;;;;;;;40.63;11.77;;;8.70;99.90;;;;;;4991620;28;20046;-89
2023/04/16 03:31:33;;;;;;;37.55;11.85;;;8.70;99.90;;;;;;4985296;28;20364;-88
2023/04/16 03:33:58;;;;;;;35.20;12.23;;;8.70;99.90;;;;;;4991883;28;20036;-88
2023/04/16 03:36:25;;;;;;;38.67;12.98;;;8.70;99.90;;;;;;4991622;28;20026;-88
2023/04/16 03:38:51;;;;;;;36.50;12.48;;;8.70;99.90;;;;;;4992139;28;20050;-88
2023/04/16 03:41:17;;;;;;;32.47;10.85;;;8.70;99.90;;;;;;4995619;28;20054;-88
2023/04/16 03:43:43;;;;;;;40.63;13.23;;;8.70;99.90;;;;;;5011695;28;20402;-88
2023/04/16 03:46:08;;;;;;;39.25;11.50;;;8.70;99.90;;;;;;4995164;28;20121;-89
2023/04/16 03:48:34;;;;;;;35.97;12.50;;;8.70;99.90;;;;;;4994876;28;20057;-89
2023/04/16 03:50:59;;;;;;;40.50;12.02;;;8.70;99.90;;;;;;4995420;28;20022;-89
2023/04/16 03:53:25;;;;;;;44.20;13.77;;;8.70;99.90;;;;;;4994439;28;20037;-88
2023/04/16 03:55:51;;;;;;;37.67;11.43;;;8.70;99.90;;;;;;4987148;28;20633;-88
2023/04/16 03:58:18;;;;;;;37.22;11.98;;;8.60;99.90;;;;;;4994157;28;20031;-88
2023/04/16 04:00:43;;;;;;;37.33;12.57;;;8.60;99.90;;;;;;4995956;28;20023;-88
2023/04/16 04:03:10;;;;;;;41.78;12.75;;;8.60;99.90;;;;;;4994659;28;20372;-86
2023/04/16 04:05:40;;;;;;;37.78;13.13;;;8.60;99.90;;;;;;4995680;28;20105;-88
2023/04/16 04:08:06;;;;;;;45.22;15.95;;;8.60;99.90;;;;;;4994623;28;20050;-88
2023/04/16 04:10:32;;;;;;;40.22;15.30;;;8.60;99.90;;;;;;4994735;28;20081;-88
2023/04/16 04:12:58;;;;;;;48.08;17.25;;;8.60;99.90;;;;;;4994778;28;20034;-89
2023/04/16 04:15:23;;;;;;;41.15;16.33;;;8.60;99.90;;;;;;4994773;28;20551;-89
2023/04/16 04:17:49;;;;;;;38.15;14.32;;;8.60;99.90;;;;;;4989158;28;20080;-88
2023/04/16 04:20:15;;;;;;;38.47;17.13;;;8.60;99.90;;;;;;4995025;28;20026;-89
2023/04/16 04:22:40;;;;;;;42.22;17.38;;;8.60;99.90;;;;;;4993840;28;20058;-88
2023/04/16 04:25:07;;;;;;;36.17;15.65;;;8.60;99.90;;;;;;4989907;28;20058;-87
2023/04/16 04:27:32;;;;;;;42.00;16.73;;;8.60;99.90;;;;;;4992000;28;20022;-87
2023/04/16 04:29:58;;;;;;;41.05;16.52;;;8.60;99.90;;;;;;4995025;28;20391;-88
2023/04/16 04:32:23;;;;;;;37.10;16.05;;;8.60;99.90;;;;;;4995388;28;20046;-87
2023/04/16 04:34:49;;;;;;;42.15;16.55;;;8.70;99.90;;;;;;4994286;28;20029;-88
2023/04/16 04:37:14;;;;;;;45.67;18.52;;;8.70;99.90;;;;;;4994353;28;20033;-87
2023/04/16 04:39:40;;;;;;;40.72;17.75;;;8.60;99.90;;;;;;4994824;28;20022;-87
2023/04/16 04:42:06;;;;;;;50.00;19.63;;;8.60;99.90;;;;;;4994113;28;20034;-88
2023/04/16 04:44:31;;;;;;;46.95;19.55;;;8.60;99.90;;;;;;4991237;28;20041;-88
2023/04/16 04:46:57;;;;;;;44.42;18.85;;;8.60;99.90;;;;;;4993851;28;20045;-87
2023/04/16 04:49:22;;;;;;;45.30;19.10;;;8.70;99.90;;;;;;4993440;28;20018;-87
2023/04/16 04:51:48;;;;;;;48.53;19.50;;;8.70;99.90;;;;;;4996418;28;20034;-88
2023/04/16 04:54:13;;;;;;;49.58;18.33;;;8.70;99.90;;;;;;4993437;28;20050;-88
2023/04/16 04:56:39;;;;;;;53.65;19.80;;;8.70;99.90;;;;;;5010855;28;20038;-88
2023/04/16 04:59:05;;;;;;;40.88;15.93;;;8.70;99.90;;;;;;4992333;28;20029;-88
2023/04/16 05:01:30;;;;;;;40.15;17.00;;;8.70;99.90;;;;;;4995418;28;20034;-88
2023/04/16 05:03:56;;;;;;;48.47;16.50;;;8.70;99.90;;;;;;4996214;28;20053;-88
2023/04/16 05:06:21;;;;;;;42.80;16.00;;;8.70;99.90;;;;;;5009327;28;20031;-88
2023/04/16 05:08:47;;;;;;;38.30;16.45;;;8.70;99.90;;;;;;4988599;28;20107;-88
2023/04/16 05:11:12;;;;;;;44.75;17.35;;;8.70;99.90;;;;;;4992874;28;20527;-88
2023/04/16 05:13:38;;;;;;;34.05;13.98;;;8.70;99.90;;;;;;4994154;28;20031;-89
2023/04/16 05:16:03;;;;;;;37.58;13.68;;;8.70;99.90;;;;;;4991659;28;20509;-89
2023/04/16 05:18:29;;;;;;;41.45;15.63;;;8.70;99.90;;;;;;4993420;28;20037;-89
2023/04/16 05:20:55;;;;;;;37.60;13.82;;;8.70;99.90;;;;;;4994230;28;20029;-89
2023/04/16 05:23:21;;;;;;;37.75;14.65;;;8.70;99.90;;;;;;4990924;28;20033;-88
2023/04/16 05:25:46;;;;;;;36.35;14.10;;;8.70;99.90;;;;;;4990198;28;20057;-88
2023/04/16 05:28:11;;;;;;;40.65;14.70;;;8.70;99.90;;;;;;4996348;28;20026;-87
2023/04/16 05:30:37;;;;;;;42.75;14.32;;;8.70;99.90;;;;;;4988459;28;20121;-88
2023/04/16 05:33:03;;;;;;;37.25;13.55;;;8.70;99.90;;;;;;5002837;28;20026;-88
2023/04/16 05:35:28;;;;;;;38.67;14.75;;;8.70;99.90;;;;;;4993592;28;20026;-88
2023/04/16 05:37:54;;;;;;;38.78;14.15;;;8.70;99.90;;;;;;4993900;28;20026;-88
2023/04/16 05:40:19;;;;;;;39.58;14.90;;;8.70;99.90;;;;;;4990056;28;20945;-87
2023/04/16 05:42:45;;;;;;;48.20;14.43;;;8.70;99.90;;;;;;4989813;28;20437;-88
2023/04/16 05:45:10;;;;;;;36.83;14.82;;;8.70;99.90;;;;;;4988612;28;20542;-88
2023/04/16 05:47:36;;;;;;;39.33;15.90;;;8.70;99.90;;;;;;4989985;28;20121;-89
2023/04/16 05:50:01;;;;;;;41.92;15.27;;;8.70;99.90;;;;;;4991374;28;20033;-88
2023/04/16 05:52:27;;;;;;;40.50;15.52;;;8.70;99.90;;;;;;4992465;28;20407;-88
2023/04/16 05:54:52;;;;;;;40.00;14.43;;;8.70;99.90;;;;;;4993541;28;20022;-88
2023/04/16 05:57:18;;;;;;;38.20;15.57;;;8.70;99.90;;;;;;4992913;28;20030;-88
2023/04/16 05:59:44;;;;;;;46.25;17.50;;;8.80;99.90;;;;;;4993380;28;20034;-88
2023/04/16 06:02:09;;;;;;;34.00;14.40;;;8.80;99.90;;;;;;4993473;28;20030;-88
2023/04/16 06:04:36;;;;;;;36.97;15.75;;;8.80;99.90;;;;;;4993142;28;20030;-88
2023/04/16 06:07:01;;;;;;;43.67;16.55;;;8.80;99.90;;;;;;4992733;28;20502;-87
2023/04/16 06:09:28;;;;;;;45.03;16.15;;;8.80;99.90;;;;;;4990496;28;20085;-88
2023/04/16 06:11:54;;;;;;;40.50;15.82;;;8.80;99.90;;;;;;4966822;28;20403;-88
2023/04/16 06:14:19;;;;;;;46.63;15.95;;;8.90;99.90;;;;;;4992542;28;20033;-88
2023/04/16 06:16:45;;;;;;;36.85;15.30;;;8.90;99.90;;;;;;5010550;28;20196;-88
2023/04/16 06:19:11;;;;;;;36.10;14.95;;;8.90;99.90;;;;;;5006106;28;20034;-88
2023/04/16 06:21:37;;;;;;;51.67;17.48;;;8.90;99.90;;;;;;4993669;28;20030;-89
2023/04/16 06:24:02;;;;;;;42.03;16.00;;;8.90;99.90;;;;;;4995739;28;20019;-88
2023/04/16 06:26:28;;;;;;;45.55;16.77;;;8.80;99.90;;;;;;4993204;28;20030;-89
2023/04/16 06:28:53;;;;;;;43.88;18.23;;;8.90;99.90;;;;;;4993754;28;20089;-88
2023/04/16 06:31:19;;;;;;;38.83;16.92;;;8.90;99.90;;;;;;4993293;28;20042;-88
2023/04/16 06:33:45;;;;;;;37.70;17.02;;;8.90;99.90;;;;;;4993697;28;20019;-89
2023/04/16 06:36:11;;;;;;;37.22;16.88;;;8.90;99.90;;;;;;4993424;28;20479;-88
2023/04/16 06:38:36;;;;;;;40.53;16.08;;;8.90;99.90;;;;;;4992735;28;20030;-88
2023/04/16 06:41:02;;;;;;;36.42;16.48;;;9.00;99.90;;;;;;4991543;28;20015;-88
2023/04/16 06:43:29;;;;;;;45.67;17.10;;;9.00;99.90;;;;;;4992800;28;20053;-88
2023/04/16 06:45:54;;;;;;;41.47;17.80;;;9.00;99.90;;;;;;4993511;28;20100;-88
2023/04/16 06:48:20;;;;;;;36.15;17.02;;;9.00;99.90;;;;;;4992647;28;20478;-88
2023/04/16 06:50:45;;;;;;;32.65;16.42;;;9.00;99.90;;;;;;4992687;28;20117;-89
2023/04/16 06:53:11;;;;;;;38.08;16.63;;;9.00;99.90;;;;;;4991402;28;20038;-88
2023/04/16 06:55:36;;;;;;;36.78;16.33;;;9.10;99.90;;;;;;4993984;28;20107;-87
2023/04/16 06:58:02;;;;;;;43.08;16.50;;;9.20;99.90;;;;;;4993741;28;20022;-88
2023/04/16 07:00:28;;;;;;;39.40;17.58;;;9.20;99.90;;;;;;4992500;28;20603;-88
2023/04/16 07:02:53;;;;;;;43.33;17.88;;;9.20;99.90;;;;;;4995687;28;20117;-88
2023/04/16 07:05:19;;;;;;;48.75;18.42;;;9.20;99.90;;;;;;4991455;28;20034;-88
2023/04/16 07:07:44;;;;;;;39.10;16.60;;;9.20;99.90;;;;;;4991656;28;21149;-87
2023/04/16 07:10:10;;;;;;;42.28;18.23;;;9.30;99.90;;;;;;5008572;28;20113;-87
2023/04/16 07:12:35;;;;;;;41.88;18.63;;;9.30;99.90;;;;;;4993360;28;20104;-85
2023/04/16 07:15:01;;;;;;;43.95;18.10;;;9.30;99.90;;;;;;4994492;28;20031;-87
2023/04/16 07:17:26;;;;;;;44.85;18.73;;;9.40;99.90;;;;;;4996723;28;20034;-87
2023/04/16 07:19:52;;;;;;;43.85;17.48;;;9.40;99.90;;;;;;4996591;28;20027;-87
2023/04/16 07:22:18;;;;;;;39.00;17.75;;;9.40;99.90;;;;;;4996484;28;20072;-88
2023/04/16 07:24:43;;;;;;;36.55;17.75;;;9.40;99.90;;;;;;4995803;28;20413;-88
2023/04/16 07:27:09;;;;;;;46.88;19.02;;;9.40;99.90;;;;;;5012598;28;20112;-87
2023/04/16 07:29:34;;;;;;;40.08;18.92;;;9.40;99.90;;;;;;4994417;28;20026;-87
2023/04/16 07:32:00;;;;;;;48.53;18.15;;;9.40;99.90;;;;;;5008064;28;20041;-87
2023/04/16 07:34:25;;;;;;;43.88;19.65;;;9.40;99.90;;;;;;4996487;28;20033;-88
2023/04/16 07:36:51;;;;;;;40.38;18.15;;;9.40;99.90;;;;;;4996339;28;20026;-88
2023/04/16 07:39:16;;;;;;;42.83;18.55;;;9.50;99.90;;;;;;4996134;28;20029;-88
2023/04/16 07:41:42;;;;;;;40.65;19.10;;;9.50;99.90;;;;;;4996581;28;20045;-87
2023/04/16 07:44:08;;;;;;;43.70;19.35;;;9.50;99.90;;;;;;4996106;28;20022;-87
2023/04/16 07:46:34;;;;;;;44.60;18.48;;;9.50;99.90;;;;;;4995781;28;20505;-88
2023/04/16 07:48:59;;;;;;;51.00;20.67;;;9.50;99.90;;;;;;4997250;28;20019;-88
2023/04/16 07:51:25;;;;;;;45.97;19.85;;;9.50;99.90;;;;;;4997771;28;20034;-88
2023/04/16 07:53:50;;;;;;;48.15;20.42;;;9.60;99.90;;;;;;4997568;28;20034;-88
2023/04/16 07:56:16;;;;;;;45.90;20.17;;;9.60;99.90;;;;;;4997672;28;20049;-87
2023/04/16 07:58:42;;;;;;;51.60;22.00;;;9.70;99.90;;;;;;4997259;28;20022;-88
2023/04/16 08:01:07;;;;;;;47.88;19.50;;;9.70;99.90;;;;;;4998151;28;20099;-88
2023/04/16 08:03:33;;;;;;;52.70;20.95;;;9.80;99.90;;;;;;4997821;28;20030;-88
2023/04/16 08:05:58;;;;;;;47.05;20.42;;;9.80;99.90;;;;;;4983491;28;20119;-88
2023/04/16 08:08:24;;;;;;;40.78;19.80;;;9.90;99.90;;;;;;4996331;28;20050;-88
2023/04/16 08:10:54;;;;;;;53.88;21.05;;;9.90;99.90;;;;;;4996503;28;20030;-88
2023/04/16 08:13:21;;;;;;;47.50;20.60;;;9.90;99.90;;;;;;4997739;28;20069;-88
2023/04/16 08:15:47;;;;;;;44.70;19.00;;;10.00;99.90;;;;;;4997794;28;20030;-87
2023/04/16 08:18:14;;;;;;;47.08;20.30;;;10.00;99.90;;;;;;4998066;28;20034;-87
2023/04/16 08:20:40;;;;;;;48.05;20.08;;;10.00;99.90;;;;;;4993503;28;20121;-88
2023/04/16 08:23:06;;;;;;;55.25;21.02;;;10.10;99.90;;;;;;4995148;28;20030;-88
2023/04/16 08:25:31;;;;;;;42.28;19.10;;;10.10;99.90;;;;;;4996497;28;20040;-88
2023/04/16 08:27:57;;;;;;;47.97;20.33;;;10.10;99.90;;;;;;4996945;28;20023;-88
2023/04/16 08:30:22;;;;;;;46.67;20.23;;;10.20;99.90;;;;;;4997149;28;20022;-87
2023/04/16 08:32:48;;;;;;;39.30;19.05;;;10.20;99.90;;;;;;5025020;28;20093;-88
2023/04/16 08:35:14;;;;;;;48.55;22.13;;;10.20;99.90;;;;;;5012286;28;20053;-87
2023/04/16 08:37:40;;;;;;;57.67;23.42;;;10.10;99.90;;;;;;4993511;28;20756;-87
2023/04/16 08:40:06;;;;;;;48.60;21.70;;;10.10;99.90;;;;;;5011425;28;20034;-88
2023/04/16 08:42:36;;;;;;;48.92;21.85;;;10.10;99.90;;;;;;4999154;28;20286;-88
2023/04/16 08:45:16;;;;;;;51.63;24.20;;;10.10;99.90;;;;;;4996583;28;20035;-88
2023/04/16 08:47:45;;;;;;;52.85;24.27;;;10.10;99.90;;;;;;4982964;28;20126;-87
2023/04/16 08:50:14;;;;;;;54.55;24.27;;;10.10;99.90;;;;;;4995575;28;20018;-88
2023/04/16 08:52:49;;;;;;;57.70;23.75;;;10.10;99.90;;;;;;4995193;28;20038;-88
2023/04/16 08:55:17;;;;;;;52.25;23.33;;;10.10;99.90;;;;;;5013039;28;20105;-88
2023/04/16 08:57:58;;;;;;;46.67;24.42;;;10.20;99.90;;;;;;4997527;28;20030;-88
2023/04/16 09:00:24;;;;;;;50.33;25.73;;;10.30;99.90;;;;;;4996817;28;20090;-88
2023/04/16 09:02:50;;;;;;;49.72;24.00;;;10.30;99.90;;;;;;4996598;28;20046;-87
2023/04/16 09:05:17;;;;;;;50.90;22.83;;;10.40;99.90;;;;;;4990149;28;20031;-88
2023/04/16 09:07:46;;;;;;;48.35;23.05;;;10.40;99.90;;;;;;4986607;28;20549;-88
2023/04/16 09:10:13;;;;;;;52.45;24.30;;;10.40;99.90;;;;;;5004526;28;20082;-87
2023/04/16 09:12:41;;;;;;;51.58;22.95;;;10.40;99.90;;;;;;4996011;28;20031;-88
2023/04/16 09:15:09;;;;;;;47.67;23.20;;;10.40;99.90;;;;;;4995260;28;20030;-88
2023/04/16 09:17:34;;;;;;;51.28;23.17;;;10.50;99.90;;;;;;4986468;28;20108;-88
2023/04/16 09:20:00;;;;;;;47.10;21.75;;;10.50;99.90;;;;;;4995362;28;20475;-88
2023/04/16 09:22:25;;;;;;;50.50;23.58;;;10.50;99.90;;;;;;4995090;28;20049;-88
2023/04/16 09:24:51;;;;;;;53.42;22.73;;;10.50;99.90;;;;;;4995805;28;20030;-88
2023/04/16 09:27:16;;;;;;;52.45;23.23;;;10.60;99.90;;;;;;4993596;28;20038;-89
2023/04/16 09:29:42;;;;;;;45.38;22.42;;;10.70;99.90;;;;;;4991171;28;20053;-88
2023/04/16 09:32:10;;;;;;;46.60;23.23;;;10.70;99.90;;;;;;5012949;28;20038;-88
2023/04/16 09:35:00;;;;;;;51.65;24.10;;;10.80;99.90;;;;;;4995512;28;20026;-89
2023/04/16 09:37:29;;;;;;;40.38;21.75;;;10.90;99.90;;;;;;4994955;28;20038;-88
2023/04/16 09:40:00;;;;;;;42.88;22.35;;;11.00;99.90;;;;;;4996970;28;20149;-88
2023/04/16 09:42:31;;;;;;;46.85;22.45;;;11.10;99.90;;;;;;4985723;28;20038;-88
2023/04/16 09:44:57;;;;;;;44.47;20.92;;;11.10;99.90;;;;;;4996218;28;20033;-88
2023/04/16 09:47:43;;;;;;;41.35;21.95;;;11.20;99.90;;;;;;4995256;28;20030;-87
2023/04/16 09:50:17;;;;;;;44.40;21.58;;;11.30;99.90;;;;;;4993335;28;20034;-88
2023/04/16 09:52:44;;;;;;;42.17;21.80;;;11.50;99.90;;;;;;4997461;28;20034;-86
2023/04/16 09:55:10;;;;;;;41.78;21.55;;;11.50;99.90;;;;;;4995761;28;20114;-87
2023/04/16 09:57:37;;;;;;;41.22;20.35;;;11.60;99.90;;;;;;4996766;28;20129;-88
2023/04/16 10:00:07;;;;;;;41.25;20.67;;;11.60;99.90;;;;;;4995959;28;20065;-88
2023/04/16 10:02:33;;;;;;;40.95;20.85;;;11.50;99.90;;;;;;4991565;28;20352;-87
2023/04/16 10:05:01;;;;;;;40.03;21.00;;;11.60;99.90;;;;;;4991256;28;20022;-87
2023/04/16 10:07:28;;;;;;;42.22;20.70;;;11.70;99.90;;;;;;4993343;28;20034;-88
2023/04/16 10:09:54;;;;;;;39.35;21.17;;;11.80;99.90;;;;;;5005315;28;20414;-88
2023/04/16 10:12:20;;;;;;;39.40;19.85;;;11.90;99.90;;;;;;4996639;28;20050;-88
2023/04/16 10:14:46;;;;;;;39.63;20.15;;;12.00;99.90;;;;;;4991126;28;20042;-87
2023/04/16 10:17:12;;;;;;;41.38;21.15;;;12.10;99.90;;;;;;4989527;28;20582;-87
2023/04/16 10:19:39;;;;;;;38.35;20.85;;;12.10;99.90;;;;;;4995567;28;20113;-88
2023/04/16 10:22:05;;;;;;;40.28;20.83;;;12.20;99.90;;;;;;4995730;28;20096;-88
2023/04/16 10:24:32;;;;;;;36.55;19.33;;;12.20;99.90;;;;;;4988106;28;20512;-88
2023/04/16 10:26:59;;;;;;;36.85;20.02;;;12.20;99.90;;;;;;4987844;28;20029;-88
2023/04/16 10:29:29;;;;;;;35.78;20.17;;;12.30;99.90;;;;;;4991712;28;20034;-87
2023/04/16 10:31:56;;;;;;;40.00;19.42;;;12.40;99.90;;;;;;4980777;28;20041;-88
2023/04/16 10:34:23;;;;;;;36.45;21.10;;;12.50;99.90;;;;;;4993849;28;20026;-87
2023/04/16 10:36:54;;;;;;;45.35;20.70;;;12.50;99.90;;;;;;4991096;28;20023;-87
2023/04/16 10:39:21;;;;;;;38.03;19.85;;;12.50;99.90;;;;;;4997309;28;20033;-86
2023/04/16 10:41:47;;;;;;;35.90;20.42;;;12.50;99.90;;;;;;4995445;28;20023;-88
2023/04/16 10:44:12;;;;;;;43.90;21.63;;;12.50;99.90;;;;;;4994783;28;20034;-87
2023/04/16 10:46:40;;;;;;;42.60;21.48;;;12.40;99.90;;;;;;5004495;28;20120;-87
2023/04/16 10:49:25;;;;;;;38.58;19.40;;;12.40;99.90;;;;;;4988104;28;20573;-87
2023/04/16 10:52:06;;;;;;;37.70;20.63;;;12.50;99.90;;;;;;4998086;28;20042;-87
2023/04/16 10:54:35;;;;;;;34.73;19.47;;;12.50;99.90;;;;;;4982908;28;20050;-87
2023/04/16 10:57:06;;;;;;;37.85;19.92;;;12.60;99.90;;;;;;4988183;28;20320;-88
2023/04/16 10:59:34;;;;;;;42.28;19.80;;;12.60;99.90;;;;;;4985837;28;20022;-87
2023/04/16 11:02:05;;;;;;;37.42;20.35;;;12.70;99.90;;;;;;4986286;28;20044;-87
2023/04/16 11:04:38;;;;;;;40.08;19.42;;;12.60;99.90;;;;;;4997494;28;20118;-88
2023/04/16 11:07:07;;;;;;;39.47;19.02;;;12.60;99.90;;;;;;4990898;28;20034;-87
2023/04/16 11:09:58;;;;;;;39.50;19.90;;;12.60;99.90;;;;;;4994253;28;20049;-87
2023/04/16 11:12:38;;;;;;;34.85;17.70;;;12.60;99.90;;;;;;4988455;28;20042;-88
2023/04/16 11:15:11;;;;;;;35.42;18.27;;;12.60;99.90;;;;;;4980375;28;20109;-88
2023/04/16 11:17:45;;;;;;;37.83;18.52;;;12.60;99.90;;;;;;5006630;28;20049;-87
2023/04/16 11:20:23;;;;;;;39.30;18.50;;;12.50;99.90;;;;;;5006856;28;20081;-88
2023/04/16 11:22:50;;;;;;;41.05;19.98;;;12.50;99.90;;;;;;4991690;28;20030;-88
2023/04/16 11:25:23;;;;;;;34.17;18.75;;;12.40;99.90;;;;;;4991892;28;20026;-87
2023/04/16 11:27:49;;;;;;;33.65;19.27;;;12.40;99.90;;;;;;4990649;28;20078;-87
2023/04/16 11:30:15;;;;;;;35.35;18.13;;;12.50;99.90;;;;;;4983452;28;20026;-87
2023/04/16 11:32:43;;;;;;;51.03;19.58;;;12.60;99.90;;;;;;4984356;28;20049;-87
2023/04/16 11:35:16;;;;;;;30.92;16.92;;;12.70;99.90;;;;;;5004955;28;20022;-88
2023/04/16 11:37:43;;;;;;;39.90;19.48;;;12.80;99.90;;;;;;4988107;28;20031;-88
2023/04/16 11:40:09;;;;;;;38.05;18.88;;;12.80;99.90;;;;;;4987120;28;20023;-88
2023/04/16 11:42:36;;;;;;;37.95;18.08;;;12.80;99.90;;;;;;4993235;28;20480;-88
2023/04/16 11:45:02;;;;;;;32.88;18.52;;;12.80;99.90;;;;;;4981830;28;20031;-88
2023/04/16 11:47:30;;;;;;;29.17;18.38;;;12.70;99.90;;;;;;4987959;28;20085;-88
2023/04/16 11:49:56;;;;;;;37.90;19.13;;;12.80;99.90;;;;;;4979540;28;20018;-89
2023/04/16 11:52:32;;;;;;;36.53;17.30;;;12.90;99.90;;;;;;4989256;28;20381;-88
2023/04/16 11:54:58;;;;;;;30.67;17.13;;;13.00;99.90;;;;;;4991125;28;20029;-89
2023/04/16 11:57:30;;;;;;;31.30;16.38;;;13.30;99.90;;;;;;4978500;28;20074;-89
2023/04/16 11:59:57;;;;;;;;;;;13.50;99.90;;;;;;4993449;28;20557;-88
2023/04/16 12:02:39;;;;;;;30.75;16.27;;;13.50;99.90;;;;;;4994048;28;19917;-88
2023/04/16 12:05:24;;;;;;;25.13;14.57;;;13.50;99.90;;;;;;4995983;28;20073;-88
2023/04/16 12:07:49;;;;;;;27.05;14.38;;;13.60;99.90;;;;;;4993905;28;20046;-88
2023/04/16 12:10:15;;;;;;;24.65;13.70;;;13.50;99.90;;;;;;4996068;28;20144;-88
2023/04/16 12:12:40;;;;;;;23.02;13.75;;;13.50;99.90;;;;;;4988395;28;20092;-88
2023/04/16 12:15:06;;;;;;;22.13;12.95;;;13.50;99.90;;;;;;4975833;28;20430;-89
2023/04/16 12:17:33;;;;;;;20.52;12.75;;;13.50;99.90;;;;;;4975750;28;20033;-88
2023/04/16 12:20:02;;;;;;;18.27;10.77;;;13.50;99.90;;;;;;4975117;28;20033;-83
2023/04/16 12:22:36;;;;;;;20.80;11.43;;;13.50;99.90;;;;;;4978935;28;20038;-88
2023/04/16 12:25:03;;;;;;;22.25;11.45;;;13.30;99.90;;;;;;4994112;28;20033;-88
2023/04/16 12:27:50;;;;;;;19.92;11.50;;;13.10;99.90;;;;;;4987088;28;20034;-88
2023/04/16 12:30:17;;;;;;;20.88;12.23;;;13.30;99.90;;;;;;4975126;28;20383;-87
2023/04/16 12:32:46;;;;;;;18.15;10.55;;;13.30;99.90;;;;;;4975641;28;20042;-87
2023/04/16 12:35:12;;;;;;;19.92;11.07;;;13.20;99.90;;;;;;4975612;28;20030;-87